sensor_id;sensor_type;location;lat;lon;timestamp;temperature;humidity
22813;DHT22;11573;51.334;3.244;2023-05-07T00:02:05;14.50;99.90
22813;DHT22;11573;51.334;3.244;2023-05-07T00:04:34;14.50;99.90
22813;DHT22;11573;51.334;3.244;2023-05-07T00:07:04;14.50;99.90
22813;DHT22;11573;51.334;3.244;2023-05-07T00:09:32;14.50;99.90
22813;DHT22;11573;51.334;3.244;2023-05-07T00:11:59;14.50;99.90
22813;DHT22;11573;51.334;3.244;2023-05-07T00:14:26;14.50;99.90
22813;DHT22;11573;51.334;3.244;2023-05-07T00:16:53;14.50;99.90
22813;DHT22;11573;51.334;3.244;2023-05-07T00:19:20;14.50;99.90
22813;DHT22;11573;51.334;3.244;2023-05-07T00:21:47;14.50;99.90
22813;DHT22;11573;51.334;3.244;2023-05-07T00:24:14;14.50;99.90
22813;DHT22;11573;51.334;3.244;2023-05-07T00:26:41;14.50;99.90
22813;DHT22;11573;51.334;3.244;2023-05-07T00:29:08;14.40;99.90
22813;DHT22;11573;51.334;3.244;2023-05-07T00:31:35;14.40;99.90
22813;DHT22;11573;51.334;3.244;2023-05-07T00:34:02;14.40;99.90
22813;DHT22;11573;51.334;3.244;2023-05-07T00:36:29;14.40;99.90
22813;DHT22;11573;51.334;3.244;2023-05-07T00:38:59;14.30;99.90
22813;DHT22;11573;51.334;3.244;2023-05-07T00:41:26;14.30;99.90
22813;DHT22;11573;51.334;3.244;2023-05-07T00:43:53;14.30;99.90
22813;DHT22;11573;51.334;3.244;2023-05-07T00:46:21;14.30;99.90
22813;DHT22;11573;51.334;3.244;2023-05-07T00:48:50;14.30;99.90
22813;DHT22;11573;51.334;3.244;2023-05-07T00:51:18;14.20;99.90
22813;DHT22;11573;51.334;3.244;2023-05-07T00:53:45;14.20;99.90
22813;DHT22;11573;51.334;3.244;2023-05-07T00:56:12;14.20;99.90
22813;DHT22;11573;51.334;3.244;2023-05-07T00:58:40;14.20;99.90
22813;DHT22;11573;51.334;3.244;2023-05-07T01:01:07;14.10;99.90
22813;DHT22;11573;51.334;3.244;2023-05-07T01:03:34;14.10;99.90
22813;DHT22;11573;51.334;3.244;2023-05-07T01:06:02;14.10;99.90
22813;DHT22;11573;51.334;3.244;2023-05-07T01:08:31;14.10;99.90
22813;DHT22;11573;51.334;3.244;2023-05-07T01:10:59;14.10;99.90
22813;DHT22;11573;51.334;3.244;2023-05-07T01:13:27;14.10;99.90
22813;DHT22;11573;51.334;3.244;2023-05-07T01:15:55;14.00;99.90
22813;DHT22;11573;51.334;3.244;2023-05-07T01:18:22;14.00;99.90
22813;DHT22;11573;51.334;3.244;2023-05-07T01:20:49;14.00;99.90
22813;DHT22;11573;51.334;3.244;2023-05-07T01:23:16;13.90;99.90
22813;DHT22;11573;51.334;3.244;2023-05-07T01:25:51;13.90;99.90
22813;DHT22;11573;51.334;3.244;2023-05-07T01:28:19;13.80;99.90
22813;DHT22;11573;51.334;3.244;2023-05-07T01:30:53;13.80;99.90
22813;DHT22;11573;51.334;3.244;2023-05-07T01:33:23;13.70;99.90
22813;DHT22;11573;51.334;3.244;2023-05-07T01:35:53;13.60;99.90
22813;DHT22;11573;51.334;3.244;2023-05-07T01:38:23;13.50;99.90
22813;DHT22;11573;51.334;3.244;2023-05-07T01:40:51;13.50;99.90
22813;DHT22;11573;51.334;3.244;2023-05-07T01:43:19;13.40;99.90
22813;DHT22;11573;51.334;3.244;2023-05-07T01:45:46;13.40;99.90
22813;DHT22;11573;51.334;3.244;2023-05-07T01:48:14;13.40;99.90
22813;DHT22;11573;51.334;3.244;2023-05-07T01:50:43;13.30;99.90
22813;DHT22;11573;51.334;3.244;2023-05-07T01:53:11;13.30;99.90
22813;DHT22;11573;51.334;3.244;2023-05-07T01:55:38;13.30;99.90
22813;DHT22;11573;51.334;3.244;2023-05-07T01:58:05;13.30;99.90
22813;DHT22;11573;51.334;3.244;2023-05-07T02:00:32;13.30;99.90
22813;DHT22;11573;51.334;3.244;2023-05-07T02:02:59;13.30;99.90
22813;DHT22;11573;51.334;3.244;2023-05-07T02:05:37;13.20;99.90
22813;DHT22;11573;51.334;3.244;2023-05-07T02:08:11;13.30;99.90
22813;DHT22;11573;51.334;3.244;2023-05-07T02:10:38;13.30;99.90
22813;DHT22;11573;51.334;3.244;2023-05-07T02:13:06;13.30;99.90
22813;DHT22;11573;51.334;3.244;2023-05-07T02:15:33;13.30;99.90
22813;DHT22;11573;51.334;3.244;2023-05-07T02:18:07;13.30;99.90
22813;DHT22;11573;51.334;3.244;2023-05-07T02:20:35;13.20;99.90
22813;DHT22;11573;51.334;3.244;2023-05-07T02:23:02;13.20;99.90
22813;DHT22;11573;51.334;3.244;2023-05-07T02:25:29;13.10;99.90
22813;DHT22;11573;51.334;3.244;2023-05-07T02:27:58;13.10;99.90
22813;DHT22;11573;51.334;3.244;2023-05-07T02:30:37;13.00;99.90
22813;DHT22;11573;51.334;3.244;2023-05-07T02:33:05;13.00;99.90
22813;DHT22;11573;51.334;3.244;2023-05-07T02:35:33;13.00;99.90
22813;DHT22;11573;51.334;3.244;2023-05-07T02:38:00;12.90;99.90
22813;DHT22;11573;51.334;3.244;2023-05-07T02:40:28;12.90;99.90
22813;DHT22;11573;51.334;3.244;2023-05-07T02:42:55;12.90;99.90
22813;DHT22;11573;51.334;3.244;2023-05-07T02:45:22;12.80;99.90
22813;DHT22;11573;51.334;3.244;2023-05-07T02:47:52;12.80;99.90
22813;DHT22;11573;51.334;3.244;2023-05-07T02:50:19;12.70;99.90
22813;DHT22;11573;51.334;3.244;2023-05-07T02:52:46;12.70;99.90
22813;DHT22;11573;51.334;3.244;2023-05-07T02:55:14;12.70;99.90
22813;DHT22;11573;51.334;3.244;2023-05-07T02:57:41;12.70;99.90
22813;DHT22;11573;51.334;3.244;2023-05-07T03:00:13;12.70;99.90
22813;DHT22;11573;51.334;3.244;2023-05-07T03:02:47;12.60;99.90
22813;DHT22;11573;51.334;3.244;2023-05-07T03:05:14;12.50;99.90
22813;DHT22;11573;51.334;3.244;2023-05-07T03:07:41;12.50;99.90
22813;DHT22;11573;51.334;3.244;2023-05-07T03:10:12;12.60;99.90
22813;DHT22;11573;51.334;3.244;2023-05-07T03:12:39;12.60;99.90
22813;DHT22;11573;51.334;3.244;2023-05-07T03:15:09;12.60;99.90
22813;DHT22;11573;51.334;3.244;2023-05-07T03:17:37;12.60;99.90
22813;DHT22;11573;51.334;3.244;2023-05-07T03:20:04;12.70;99.90
22813;DHT22;11573;51.334;3.244;2023-05-07T03:22:32;12.70;99.90
22813;DHT22;11573;51.334;3.244;2023-05-07T03:24:59;12.80;99.90
22813;DHT22;11573;51.334;3.244;2023-05-07T03:27:26;12.80;99.90
22813;DHT22;11573;51.334;3.244;2023-05-07T03:29:53;12.80;99.90
22813;DHT22;11573;51.334;3.244;2023-05-07T03:32:21;12.90;99.90
22813;DHT22;11573;51.334;3.244;2023-05-07T03:34:48;12.90;99.90
22813;DHT22;11573;51.334;3.244;2023-05-07T03:37:15;13.00;99.90
22813;DHT22;11573;51.334;3.244;2023-05-07T03:39:43;13.00;99.90
22813;DHT22;11573;51.334;3.244;2023-05-07T03:42:10;13.10;99.90
22813;DHT22;11573;51.334;3.244;2023-05-07T03:44:37;13.10;99.90
22813;DHT22;11573;51.334;3.244;2023-05-07T03:47:04;13.20;99.90
22813;DHT22;11573;51.334;3.244;2023-05-07T03:49:31;13.20;99.90
22813;DHT22;11573;51.334;3.244;2023-05-07T03:51:59;13.30;99.90
22813;DHT22;11573;51.334;3.244;2023-05-07T03:54:26;13.30;99.90
22813;DHT22;11573;51.334;3.244;2023-05-07T03:56:53;13.30;99.90
22813;DHT22;11573;51.334;3.244;2023-05-07T03:59:22;13.30;99.90
22813;DHT22;11573;51.334;3.244;2023-05-07T04:01:49;13.40;99.90
22813;DHT22;11573;51.334;3.244;2023-05-07T04:04:19;13.40;99.90
22813;DHT22;11573;51.334;3.244;2023-05-07T04:06:47;13.40;99.90
22813;DHT22;11573;51.334;3.244;2023-05-07T04:09:14;13.40;99.90
22813;DHT22;11573;51.334;3.244;2023-05-07T04:11:42;13.40;99.90
22813;DHT22;11573;51.334;3.244;2023-05-07T04:14:10;13.50;99.90
22813;DHT22;11573;51.334;3.244;2023-05-07T04:16:37;13.50;99.90
22813;DHT22;11573;51.334;3.244;2023-05-07T04:19:05;13.50;99.90
22813;DHT22;11573;51.334;3.244;2023-05-07T04:21:32;13.50;99.90
22813;DHT22;11573;51.334;3.244;2023-05-07T04:23:59;13.50;99.90
22813;DHT22;11573;51.334;3.244;2023-05-07T04:26:27;13.60;99.90
22813;DHT22;11573;51.334;3.244;2023-05-07T04:28:55;13.60;99.90
22813;DHT22;11573;51.334;3.244;2023-05-07T04:31:22;13.60;99.90
22813;DHT22;11573;51.334;3.244;2023-05-07T04:33:53;13.70;99.90
22813;DHT22;11573;51.334;3.244;2023-05-07T04:36:20;13.70;99.90
22813;DHT22;11573;51.334;3.244;2023-05-07T04:38:57;13.70;99.90
22813;DHT22;11573;51.334;3.244;2023-05-07T04:41:24;13.80;99.90
22813;DHT22;11573;51.334;3.244;2023-05-07T04:43:51;13.90;99.90
22813;DHT22;11573;51.334;3.244;2023-05-07T04:46:21;13.90;99.90
22813;DHT22;11573;51.334;3.244;2023-05-07T04:48:49;14.00;99.90
22813;DHT22;11573;51.334;3.244;2023-05-07T04:51:16;14.00;99.90
22813;DHT22;11573;51.334;3.244;2023-05-07T04:53:43;14.10;99.90
22813;DHT22;11573;51.334;3.244;2023-05-07T04:56:10;14.10;99.90
22813;DHT22;11573;51.334;3.244;2023-05-07T04:58:41;14.20;99.90
22813;DHT22;11573;51.334;3.244;2023-05-07T05:01:08;14.20;99.90
22813;DHT22;11573;51.334;3.244;2023-05-07T05:03:37;14.30;99.90
22813;DHT22;11573;51.334;3.244;2023-05-07T05:06:07;14.30;99.90
22813;DHT22;11573;51.334;3.244;2023-05-07T05:08:34;14.30;99.90
22813;DHT22;11573;51.334;3.244;2023-05-07T05:11:02;14.30;99.90
22813;DHT22;11573;51.334;3.244;2023-05-07T05:13:32;14.30;99.90
22813;DHT22;11573;51.334;3.244;2023-05-07T05:16:02;14.20;99.90
22813;DHT22;11573;51.334;3.244;2023-05-07T05:18:32;14.30;99.90
22813;DHT22;11573;51.334;3.244;2023-05-07T05:20:59;14.30;99.90
22813;DHT22;11573;51.334;3.244;2023-05-07T05:23:27;14.40;99.90
22813;DHT22;11573;51.334;3.244;2023-05-07T05:25:58;14.50;99.90
22813;DHT22;11573;51.334;3.244;2023-05-07T05:28:28;14.50;99.90
22813;DHT22;11573;51.334;3.244;2023-05-07T05:30:55;14.60;99.90
22813;DHT22;11573;51.334;3.244;2023-05-07T05:33:25;14.80;99.90
22813;DHT22;11573;51.334;3.244;2023-05-07T05:35:54;14.90;99.90
22813;DHT22;11573;51.334;3.244;2023-05-07T05:38:21;15.00;99.90
22813;DHT22;11573;51.334;3.244;2023-05-07T05:40:49;15.20;99.90
22813;DHT22;11573;51.334;3.244;2023-05-07T05:43:17;15.30;99.90
22813;DHT22;11573;51.334;3.244;2023-05-07T05:45:44;15.40;99.90
22813;DHT22;11573;51.334;3.244;2023-05-07T05:48:11;15.50;99.90
22813;DHT22;11573;51.334;3.244;2023-05-07T05:50:38;15.60;99.90
22813;DHT22;11573;51.334;3.244;2023-05-07T05:53:06;15.70;99.90
22813;DHT22;11573;51.334;3.244;2023-05-07T05:55:33;15.80;99.90
22813;DHT22;11573;51.334;3.244;2023-05-07T05:58:01;15.90;99.90
22813;DHT22;11573;51.334;3.244;2023-05-07T06:00:30;16.00;99.90
22813;DHT22;11573;51.334;3.244;2023-05-07T06:03:02;16.00;99.90
22813;DHT22;11573;51.334;3.244;2023-05-07T06:05:29;16.00;99.90
22813;DHT22;11573;51.334;3.244;2023-05-07T06:07:56;16.10;99.90
22813;DHT22;11573;51.334;3.244;2023-05-07T06:10:25;16.10;99.90
22813;DHT22;11573;51.334;3.244;2023-05-07T06:12:54;16.20;99.90
22813;DHT22;11573;51.334;3.244;2023-05-07T06:15:21;16.40;99.90
22813;DHT22;11573;51.334;3.244;2023-05-07T06:17:49;16.70;99.90
22813;DHT22;11573;51.334;3.244;2023-05-07T06:20:17;16.70;99.90
22813;DHT22;11573;51.334;3.244;2023-05-07T06:22:44;16.60;99.90
22813;DHT22;11573;51.334;3.244;2023-05-07T06:25:12;16.80;99.90
22813;DHT22;11573;51.334;3.244;2023-05-07T06:27:41;16.90;99.90
22813;DHT22;11573;51.334;3.244;2023-05-07T06:30:08;17.00;99.90
22813;DHT22;11573;51.334;3.244;2023-05-07T06:32:36;17.10;99.90
22813;DHT22;11573;51.334;3.244;2023-05-07T06:35:04;17.10;99.90
22813;DHT22;11573;51.334;3.244;2023-05-07T06:37:34;17.10;99.90
22813;DHT22;11573;51.334;3.244;2023-05-07T06:40:05;17.20;99.90
22813;DHT22;11573;51.334;3.244;2023-05-07T06:42:38;17.30;99.90
22813;DHT22;11573;51.334;3.244;2023-05-07T06:45:23;17.50;99.90
22813;DHT22;11573;51.334;3.244;2023-05-07T06:47:53;17.40;99.90
22813;DHT22;11573;51.334;3.244;2023-05-07T06:50:22;17.50;99.90
22813;DHT22;11573;51.334;3.244;2023-05-07T06:52:52;17.50;99.90
22813;DHT22;11573;51.334;3.244;2023-05-07T06:55:19;17.40;99.90
22813;DHT22;11573;51.334;3.244;2023-05-07T06:57:46;17.40;99.90
22813;DHT22;11573;51.334;3.244;2023-05-07T07:00:15;17.60;99.90
22813;DHT22;11573;51.334;3.244;2023-05-07T07:02:48;17.70;99.90
22813;DHT22;11573;51.334;3.244;2023-05-07T07:05:17;17.90;99.90
22813;DHT22;11573;51.334;3.244;2023-05-07T07:07:44;17.90;99.90
22813;DHT22;11573;51.334;3.244;2023-05-07T07:10:20;17.90;99.90
22813;DHT22;11573;51.334;3.244;2023-05-07T07:12:48;18.20;99.90
22813;DHT22;11573;51.334;3.244;2023-05-07T07:15:16;18.20;99.90
22813;DHT22;11573;51.334;3.244;2023-05-07T07:17:44;18.30;99.90
22813;DHT22;11573;51.334;3.244;2023-05-07T07:20:11;18.40;99.90
22813;DHT22;11573;51.334;3.244;2023-05-07T07:22:39;18.80;99.90
22813;DHT22;11573;51.334;3.244;2023-05-07T07:25:07;19.10;99.90
22813;DHT22;11573;51.334;3.244;2023-05-07T07:27:37;19.30;99.90
22813;DHT22;11573;51.334;3.244;2023-05-07T07:30:07;19.40;99.90
22813;DHT22;11573;51.334;3.244;2023-05-07T07:32:38;19.30;99.90
22813;DHT22;11573;51.334;3.244;2023-05-07T07:35:05;19.50;99.90
22813;DHT22;11573;51.334;3.244;2023-05-07T07:37:33;19.70;99.90
22813;DHT22;11573;51.334;3.244;2023-05-07T07:40:00;19.70;99.90
22813;DHT22;11573;51.334;3.244;2023-05-07T07:42:27;19.70;99.90
22813;DHT22;11573;51.334;3.244;2023-05-07T07:44:56;19.80;99.90
22813;DHT22;11573;51.334;3.244;2023-05-07T07:47:27;19.80;99.90
22813;DHT22;11573;51.334;3.244;2023-05-07T07:49:54;19.80;99.90
22813;DHT22;11573;51.334;3.244;2023-05-07T07:52:21;20.10;99.90
22813;DHT22;11573;51.334;3.244;2023-05-07T07:54:48;20.50;99.90
22813;DHT22;11573;51.334;3.244;2023-05-07T07:57:15;20.60;99.90
22813;DHT22;11573;51.334;3.244;2023-05-07T07:59:42;20.30;99.90
22813;DHT22;11573;51.334;3.244;2023-05-07T08:02:11;20.00;99.90
22813;DHT22;11573;51.334;3.244;2023-05-07T08:04:39;19.50;99.90
22813;DHT22;11573;51.334;3.244;2023-05-07T08:07:07;19.80;99.90
22813;DHT22;11573;51.334;3.244;2023-05-07T08:09:38;20.00;99.90
22813;DHT22;11573;51.334;3.244;2023-05-07T08:12:07;20.30;99.90
22813;DHT22;11573;51.334;3.244;2023-05-07T08:14:35;20.50;99.90
22813;DHT22;11573;51.334;3.244;2023-05-07T08:17:05;20.40;99.90
22813;DHT22;11573;51.334;3.244;2023-05-07T08:19:32;20.50;99.90
22813;DHT22;11573;51.334;3.244;2023-05-07T08:22:03;21.00;99.90
22813;DHT22;11573;51.334;3.244;2023-05-07T08:24:32;21.00;99.90
22813;DHT22;11573;51.334;3.244;2023-05-07T08:27:00;20.90;99.90
22813;DHT22;11573;51.334;3.244;2023-05-07T08:29:27;21.00;99.90
22813;DHT22;11573;51.334;3.244;2023-05-07T08:31:54;20.80;99.90
22813;DHT22;11573;51.334;3.244;2023-05-07T08:34:22;20.90;99.90
22813;DHT22;11573;51.334;3.244;2023-05-07T08:36:51;20.90;99.90
22813;DHT22;11573;51.334;3.244;2023-05-07T08:39:22;20.90;99.90
22813;DHT22;11573;51.334;3.244;2023-05-07T08:41:55;20.70;99.90
22813;DHT22;11573;51.334;3.244;2023-05-07T08:44:26;20.70;99.90
22813;DHT22;11573;51.334;3.244;2023-05-07T08:46:56;20.50;99.90
22813;DHT22;11573;51.334;3.244;2023-05-07T08:49:27;20.30;99.90
22813;DHT22;11573;51.334;3.244;2023-05-07T08:51:54;20.00;99.90
22813;DHT22;11573;51.334;3.244;2023-05-07T08:54:23;19.90;99.90
22813;DHT22;11573;51.334;3.244;2023-05-07T08:56:51;19.90;99.90
22813;DHT22;11573;51.334;3.244;2023-05-07T08:59:19;19.80;99.90
22813;DHT22;11573;51.334;3.244;2023-05-07T09:01:46;19.70;99.90
22813;DHT22;11573;51.334;3.244;2023-05-07T09:04:14;19.70;99.90
22813;DHT22;11573;51.334;3.244;2023-05-07T09:06:43;19.50;99.90
22813;DHT22;11573;51.334;3.244;2023-05-07T09:09:14;19.60;99.90
22813;DHT22;11573;51.334;3.244;2023-05-07T09:11:44;19.30;99.90
22813;DHT22;11573;51.334;3.244;2023-05-07T09:14:14;19.30;99.90
22813;DHT22;11573;51.334;3.244;2023-05-07T09:16:43;19.30;99.90
22813;DHT22;11573;51.334;3.244;2023-05-07T09:19:11;19.10;99.90
22813;DHT22;11573;51.334;3.244;2023-05-07T09:21:42;19.20;99.90
22813;DHT22;11573;51.334;3.244;2023-05-07T09:24:11;19.50;99.90
22813;DHT22;11573;51.334;3.244;2023-05-07T09:26:40;19.40;99.90
22813;DHT22;11573;51.334;3.244;2023-05-07T09:29:10;19.40;99.90
22813;DHT22;11573;51.334;3.244;2023-05-07T09:31:38;19.20;99.90
22813;DHT22;11573;51.334;3.244;2023-05-07T09:34:09;19.30;99.90
22813;DHT22;11573;51.334;3.244;2023-05-07T09:36:39;19.40;99.90
22813;DHT22;11573;51.334;3.244;2023-05-07T09:39:07;19.50;99.90
22813;DHT22;11573;51.334;3.244;2023-05-07T09:41:43;19.50;99.90
22813;DHT22;11573;51.334;3.244;2023-05-07T09:44:21;19.50;99.90
22813;DHT22;11573;51.334;3.244;2023-05-07T09:46:54;19.80;99.90
22813;DHT22;11573;51.334;3.244;2023-05-07T09:49:37;19.80;99.90
22813;DHT22;11573;51.334;3.244;2023-05-07T09:52:09;19.80;99.90
22813;DHT22;11573;51.334;3.244;2023-05-07T09:54:43;19.80;99.90
22813;DHT22;11573;51.334;3.244;2023-05-07T09:57:14;19.90;99.90
22813;DHT22;11573;51.334;3.244;2023-05-07T09:59:46;20.00;99.90
22813;DHT22;11573;51.334;3.244;2023-05-07T10:02:17;19.60;99.90
22813;DHT22;11573;51.334;3.244;2023-05-07T10:04:50;19.40;99.90
22813;DHT22;11573;51.334;3.244;2023-05-07T10:07:22;19.30;99.90
22813;DHT22;11573;51.334;3.244;2023-05-07T10:09:55;19.00;99.90
22813;DHT22;11573;51.334;3.244;2023-05-07T10:12:31;18.80;99.90
22813;DHT22;11573;51.334;3.244;2023-05-07T10:15:10;18.90;99.90
22813;DHT22;11573;51.334;3.244;2023-05-07T10:17:41;18.80;99.90
22813;DHT22;11573;51.334;3.244;2023-05-07T10:20:11;18.70;99.90
22813;DHT22;11573;51.334;3.244;2023-05-07T10:22:48;18.60;99.90
22813;DHT22;11573;51.334;3.244;2023-05-07T10:25:23;18.40;99.90
22813;DHT22;11573;51.334;3.244;2023-05-07T10:27:53;18.30;99.90
22813;DHT22;11573;51.334;3.244;2023-05-07T10:33:37;18.30;99.90
22813;DHT22;11573;51.334;3.244;2023-05-07T10:36:06;18.40;99.90
22813;DHT22;11573;51.334;3.244;2023-05-07T10:38:35;18.60;99.90
22813;DHT22;11573;51.334;3.244;2023-05-07T10:41:02;18.60;99.90
22813;DHT22;11573;51.334;3.244;2023-05-07T10:43:43;18.90;99.90
22813;DHT22;11573;51.334;3.244;2023-05-07T10:46:21;19.10;99.90
22813;DHT22;11573;51.334;3.244;2023-05-07T10:51:40;19.10;99.90
22813;DHT22;11573;51.334;3.244;2023-05-07T10:54:19;18.90;99.90
22813;DHT22;11573;51.334;3.244;2023-05-07T11:03:07;19.40;99.90
22813;DHT22;11573;51.334;3.244;2023-05-07T11:05:47;19.60;99.90
22813;DHT22;11573;51.334;3.244;2023-05-07T11:08:22;19.60;99.90
22813;DHT22;11573;51.334;3.244;2023-05-07T11:10:56;19.50;99.90
22813;DHT22;11573;51.334;3.244;2023-05-07T11:16:28;19.90;99.90
22813;DHT22;11573;51.334;3.244;2023-05-07T11:19:06;20.10;99.90
22813;DHT22;11573;51.334;3.244;2023-05-07T11:21:42;19.90;99.90
22813;DHT22;11573;51.334;3.244;2023-05-07T11:24:25;19.60;99.90
22813;DHT22;11573;51.334;3.244;2023-05-07T11:26:57;19.40;99.90
22813;DHT22;11573;51.334;3.244;2023-05-07T11:29:26;19.40;99.90
22813;DHT22;11573;51.334;3.244;2023-05-07T11:32:04;19.40;99.90
22813;DHT22;11573;51.334;3.244;2023-05-07T11:34:39;19.50;99.90
22813;DHT22;11573;51.334;3.244;2023-05-07T11:37:08;19.60;99.90
22813;DHT22;11573;51.334;3.244;2023-05-07T11:39:51;19.90;99.90
22813;DHT22;11573;51.334;3.244;2023-05-07T11:42:30;20.20;99.90
22813;DHT22;11573;51.334;3.244;2023-05-07T11:44:58;20.30;99.90
22813;DHT22;11573;51.334;3.244;2023-05-07T11:47:26;20.20;99.90
22813;DHT22;11573;51.334;3.244;2023-05-07T11:49:54;20.00;99.90
22813;DHT22;11573;51.334;3.244;2023-05-07T11:52:24;19.90;99.90
22813;DHT22;11573;51.334;3.244;2023-05-07T11:54:53;20.10;99.90
22813;DHT22;11573;51.334;3.244;2023-05-07T11:57:24;19.90;99.90
22813;DHT22;11573;51.334;3.244;2023-05-07T11:59:59;19.80;99.90
22813;DHT22;11573;51.334;3.244;2023-05-07T12:02:26;19.80;99.90
22813;DHT22;11573;51.334;3.244;2023-05-07T12:04:55;19.80;99.90
22813;DHT22;11573;51.334;3.244;2023-05-07T12:07:23;19.70;99.90
22813;DHT22;11573;51.334;3.244;2023-05-07T12:09:52;19.70;99.90
22813;DHT22;11573;51.334;3.244;2023-05-07T12:12:19;19.90;99.90
22813;DHT22;11573;51.334;3.244;2023-05-07T12:14:46;20.10;99.90
22813;DHT22;11573;51.334;3.244;2023-05-07T12:17:14;20.20;99.90
22813;DHT22;11573;51.334;3.244;2023-05-07T12:19:43;20.20;99.90
22813;DHT22;11573;51.334;3.244;2023-05-07T12:22:12;19.90;99.90
22813;DHT22;11573;51.334;3.244;2023-05-07T12:24:58;19.80;99.90
22813;DHT22;11573;51.334;3.244;2023-05-07T12:27:26;20.10;99.90
22813;DHT22;11573;51.334;3.244;2023-05-07T12:29:53;20.30;99.90
22813;DHT22;11573;51.334;3.244;2023-05-07T12:32:21;20.40;99.90
22813;DHT22;11573;51.334;3.244;2023-05-07T12:34:52;20.50;99.90
22813;DHT22;11573;51.334;3.244;2023-05-07T12:37:24;20.80;99.90
22813;DHT22;11573;51.334;3.244;2023-05-07T12:40:05;20.80;99.90
22813;DHT22;11573;51.334;3.244;2023-05-07T12:42:36;20.90;99.90
22813;DHT22;11573;51.334;3.244;2023-05-07T12:45:11;21.00;99.90
22813;DHT22;11573;51.334;3.244;2023-05-07T12:47:39;21.10;99.90
22813;DHT22;11573;51.334;3.244;2023-05-07T12:50:06;21.20;99.90
22813;DHT22;11573;51.334;3.244;2023-05-07T12:52:34;20.90;99.90
22813;DHT22;11573;51.334;3.244;2023-05-07T12:55:05;20.70;99.90
22813;DHT22;11573;51.334;3.244;2023-05-07T12:57:41;20.60;99.90
22813;DHT22;11573;51.334;3.244;2023-05-07T13:00:09;20.30;99.90
22813;DHT22;11573;51.334;3.244;2023-05-07T13:02:40;20.20;99.90
22813;DHT22;11573;51.334;3.244;2023-05-07T13:05:08;20.30;99.90
22813;DHT22;11573;51.334;3.244;2023-05-07T13:07:36;20.80;99.90
22813;DHT22;11573;51.334;3.244;2023-05-07T13:10:04;21.00;99.90
22813;DHT22;11573;51.334;3.244;2023-05-07T13:12:32;21.10;99.90
22813;DHT22;11573;51.334;3.244;2023-05-07T13:14:59;21.00;99.90
22813;DHT22;11573;51.334;3.244;2023-05-07T13:17:26;20.50;99.90
22813;DHT22;11573;51.334;3.244;2023-05-07T13:19:53;20.00;99.90
22813;DHT22;11573;51.334;3.244;2023-05-07T13:22:20;20.30;99.90
22813;DHT22;11573;51.334;3.244;2023-05-07T13:24:47;20.00;99.90
22813;DHT22;11573;51.334;3.244;2023-05-07T13:27:14;19.70;99.90
22813;DHT22;11573;51.334;3.244;2023-05-07T13:29:42;19.50;99.90
22813;DHT22;11573;51.334;3.244;2023-05-07T13:32:09;19.70;99.90
22813;DHT22;11573;51.334;3.244;2023-05-07T13:34:36;20.20;99.90
22813;DHT22;11573;51.334;3.244;2023-05-07T13:37:03;20.30;99.90
22813;DHT22;11573;51.334;3.244;2023-05-07T13:39:30;20.30;99.90
22813;DHT22;11573;51.334;3.244;2023-05-07T13:41:58;20.50;99.90
22813;DHT22;11573;51.334;3.244;2023-05-07T13:44:25;20.20;99.90
22813;DHT22;11573;51.334;3.244;2023-05-07T13:46:52;19.80;99.90
22813;DHT22;11573;51.334;3.244;2023-05-07T13:49:19;19.70;99.90
22813;DHT22;11573;51.334;3.244;2023-05-07T13:51:46;19.40;99.90
22813;DHT22;11573;51.334;3.244;2023-05-07T13:54:13;19.70;99.90
22813;DHT22;11573;51.334;3.244;2023-05-07T13:56:40;19.80;99.90
22813;DHT22;11573;51.334;3.244;2023-05-07T13:59:07;19.70;99.90
22813;DHT22;11573;51.334;3.244;2023-05-07T14:01:35;19.70;99.90
22813;DHT22;11573;51.334;3.244;2023-05-07T14:04:02;19.70;99.90
22813;DHT22;11573;51.334;3.244;2023-05-07T14:06:29;19.80;99.90
22813;DHT22;11573;51.334;3.244;2023-05-07T14:08:57;19.60;99.90
22813;DHT22;11573;51.334;3.244;2023-05-07T14:11:24;19.40;99.90
22813;DHT22;11573;51.334;3.244;2023-05-07T14:13:51;19.40;99.90
22813;DHT22;11573;51.334;3.244;2023-05-07T14:16:18;19.10;99.90
22813;DHT22;11573;51.334;3.244;2023-05-07T14:18:45;18.70;99.90
22813;DHT22;11573;51.334;3.244;2023-05-07T14:21:12;18.60;99.90
22813;DHT22;11573;51.334;3.244;2023-05-07T14:23:39;18.60;99.90
22813;DHT22;11573;51.334;3.244;2023-05-07T14:26:06;19.00;99.90
22813;DHT22;11573;51.334;3.244;2023-05-07T14:28:33;19.10;99.90
22813;DHT22;11573;51.334;3.244;2023-05-07T14:31:00;18.90;99.90
22813;DHT22;11573;51.334;3.244;2023-05-07T14:33:27;18.60;99.90
22813;DHT22;11573;51.334;3.244;2023-05-07T14:35:54;18.40;99.90
22813;DHT22;11573;51.334;3.244;2023-05-07T14:38:21;18.60;99.90
22813;DHT22;11573;51.334;3.244;2023-05-07T14:40:48;18.40;99.90
22813;DHT22;11573;51.334;3.244;2023-05-07T14:43:16;18.10;99.90
22813;DHT22;11573;51.334;3.244;2023-05-07T14:45:42;18.00;99.90
22813;DHT22;11573;51.334;3.244;2023-05-07T14:48:09;18.10;99.90
22813;DHT22;11573;51.334;3.244;2023-05-07T14:50:42;18.00;99.90
22813;DHT22;11573;51.334;3.244;2023-05-07T14:53:09;17.90;99.90
22813;DHT22;11573;51.334;3.244;2023-05-07T14:55:36;17.90;99.90
22813;DHT22;11573;51.334;3.244;2023-05-07T14:58:03;18.00;99.90
22813;DHT22;11573;51.334;3.244;2023-05-07T15:00:30;18.10;99.90
22813;DHT22;11573;51.334;3.244;2023-05-07T15:03:07;18.30;99.90
22813;DHT22;11573;51.334;3.244;2023-05-07T15:05:35;18.60;99.90
22813;DHT22;11573;51.334;3.244;2023-05-07T15:08:02;18.90;99.90
22813;DHT22;11573;51.334;3.244;2023-05-07T15:10:29;19.20;99.90
22813;DHT22;11573;51.334;3.244;2023-05-07T15:12:56;19.10;99.90
22813;DHT22;11573;51.334;3.244;2023-05-07T15:15:23;19.20;99.90
22813;DHT22;11573;51.334;3.244;2023-05-07T15:17:52;19.00;99.90
22813;DHT22;11573;51.334;3.244;2023-05-07T15:20:19;18.90;99.90
22813;DHT22;11573;51.334;3.244;2023-05-07T15:22:46;18.70;99.90
22813;DHT22;11573;51.334;3.244;2023-05-07T15:25:13;18.70;99.90
22813;DHT22;11573;51.334;3.244;2023-05-07T15:27:40;18.80;99.90
22813;DHT22;11573;51.334;3.244;2023-05-07T15:30:08;19.30;99.90
22813;DHT22;11573;51.334;3.244;2023-05-07T15:32:37;19.10;99.90
22813;DHT22;11573;51.334;3.244;2023-05-07T15:35:05;18.90;99.90
22813;DHT22;11573;51.334;3.244;2023-05-07T15:37:33;19.00;99.90
22813;DHT22;11573;51.334;3.244;2023-05-07T15:40:00;18.90;99.90
22813;DHT22;11573;51.334;3.244;2023-05-07T15:42:29;19.10;99.90
22813;DHT22;11573;51.334;3.244;2023-05-07T15:44:56;18.90;99.90
22813;DHT22;11573;51.334;3.244;2023-05-07T15:47:23;18.50;99.90
22813;DHT22;11573;51.334;3.244;2023-05-07T15:49:50;18.20;99.90
22813;DHT22;11573;51.334;3.244;2023-05-07T15:52:17;18.20;99.90
22813;DHT22;11573;51.334;3.244;2023-05-07T15:54:44;18.50;99.90
22813;DHT22;11573;51.334;3.244;2023-05-07T15:57:11;18.40;99.90